RZO360 LPPD-LPMA
Flight info
| Callsign | RZO360 |
|---|---|
| Flight time | 1h 24m |
| Altitude | 37000 |
| Route | GIRIX DCT ETROX DCT 35N020W DCT IRKID/N0451F370 DCT IBBAN |
| Aircraft | A21N/M-SDE2E3FGHIRWXY/LB1 |
Departure
| Time | 2026-05-05 22:07 |
|---|---|
| Airport | João Paulo II Airport (LPPD) |
Arrival
| Time | 2026-05-05 23:32 |
|---|---|
| Airport | Cristiano Ronaldo International Airport (LPMA) |
| Time | Latitude | Longitude | Altitude | Speed | Heading |
|---|---|---|---|---|---|
| 2026-05-05 21:40 | 37.74321 | -25.69637 | 230 ft | 0 kts | 292° |
| 2026-05-05 22:02 | 37.74321 | -25.69636 | 230 ft | 0 kts | 293° |
| 2026-05-05 22:03 | 37.74323 | -25.69642 | 230 ft | 2 kts | 287° |
| 2026-05-05 22:03 | 37.74318 | -25.69677 | 231 ft | 4 kts | 245° |
| 2026-05-05 22:03 | 37.74293 | -25.69710 | 230 ft | 6 kts | 214° |
| 2026-05-05 22:03 | 37.74239 | -25.69738 | 227 ft | 10 kts | 188° |
| 2026-05-05 22:04 | 37.74170 | -25.69671 | 220 ft | 16 kts | 115° |
| 2026-05-05 22:04 | 37.74117 | -25.69512 | 209 ft | 19 kts | 111° |
| 2026-05-05 22:04 | 37.74062 | -25.69336 | 199 ft | 23 kts | 111° |
| 2026-05-05 22:04 | 37.74005 | -25.69153 | 190 ft | 20 kts | 111° |
| 2026-05-05 22:05 | 37.73949 | -25.68975 | 180 ft | 22 kts | 108° |
| 2026-05-05 22:05 | 37.73885 | -25.68772 | 167 ft | 27 kts | 112° |
| 2026-05-05 22:05 | 37.73840 | -25.68624 | 156 ft | 19 kts | 110° |
| 2026-05-05 22:05 | 37.73796 | -25.68485 | 144 ft | 17 kts | 134° |
| 2026-05-05 22:06 | 37.73755 | -25.68528 | 143 ft | 8 kts | 307° |
| 2026-05-05 22:06 | 37.73788 | -25.68562 | 149 ft | 7 kts | 324° |
| 2026-05-05 22:06 | 37.73832 | -25.68619 | 155 ft | 11 kts | 301° |
| 2026-05-05 22:06 | 37.73872 | -25.68746 | 165 ft | 15 kts | 293° |
| 2026-05-05 22:07 | 37.73925 | -25.68902 | 176 ft | 40 kts | 287° |
| 2026-05-05 22:07 | 37.74123 | -25.69531 | 210 ft | 113 kts | 291° |
| 2026-05-05 22:07 | 37.74485 | -25.70700 | 393 ft | 161 kts | 294° |
| 2026-05-05 22:07 | 37.74906 | -25.71990 | 1180 ft | 160 kts | 290° |
| 2026-05-05 22:08 | 37.74936 | -25.73340 | 2006 ft | 165 kts | 250° |
| 2026-05-05 22:08 | 37.74083 | -25.74395 | 2578 ft | 190 kts | 206° |
| 2026-05-05 22:08 | 37.72725 | -25.74493 | 3186 ft | 211 kts | 164° |
| 2026-05-05 22:08 | 37.71448 | -25.73477 | 3788 ft | 228 kts | 140° |
| 2026-05-05 22:09 | 37.70214 | -25.72100 | 4352 ft | 249 kts | 138° |
| 2026-05-05 22:09 | 37.68900 | -25.70630 | 4932 ft | 269 kts | 138° |
| 2026-05-05 22:09 | 37.67438 | -25.69076 | 5698 ft | 283 kts | 141° |
| 2026-05-05 22:09 | 37.65919 | -25.67535 | 6667 ft | 286 kts | 140° |
| 2026-05-05 22:10 | 37.64377 | -25.65921 | 7657 ft | 289 kts | 140° |
| 2026-05-05 22:10 | 37.62839 | -25.64340 | 8606 ft | 291 kts | 141° |
| 2026-05-05 22:10 | 37.61249 | -25.62728 | 9509 ft | 295 kts | 141° |
| 2026-05-05 22:10 | 37.59647 | -25.61101 | 10349 ft | 299 kts | 141° |
| 2026-05-05 22:11 | 37.58040 | -25.59478 | 11208 ft | 302 kts | 141° |
| 2026-05-05 22:11 | 37.56358 | -25.57767 | 11700 ft | 319 kts | 140° |
| 2026-05-05 22:11 | 37.54596 | -25.55967 | 12141 ft | 336 kts | 140° |
| 2026-05-05 22:11 | 37.52729 | -25.54062 | 12553 ft | 354 kts | 141° |
| 2026-05-05 22:12 | 37.50758 | -25.52063 | 12928 ft | 370 kts | 141° |
| 2026-05-05 22:12 | 37.48711 | -25.49993 | 13277 ft | 387 kts | 141° |
| 2026-05-05 22:12 | 37.46589 | -25.47848 | 13864 ft | 394 kts | 141° |
| 2026-05-05 22:12 | 37.44444 | -25.45679 | 14590 ft | 398 kts | 141° |
| 2026-05-05 22:13 | 37.42290 | -25.43499 | 15282 ft | 401 kts | 141° |
| 2026-05-05 22:13 | 37.40103 | -25.41290 | 15954 ft | 406 kts | 141° |
| 2026-05-05 22:13 | 37.37923 | -25.39089 | 16626 ft | 409 kts | 141° |
| 2026-05-05 22:13 | 37.35669 | -25.36811 | 17288 ft | 414 kts | 141° |
| 2026-05-05 22:14 | 37.33440 | -25.34559 | 17931 ft | 418 kts | 141° |
| 2026-05-05 22:14 | 37.31156 | -25.32253 | 18567 ft | 422 kts | 141° |
| 2026-05-05 22:14 | 37.28854 | -25.29934 | 19185 ft | 425 kts | 141° |
| 2026-05-05 22:14 | 37.26556 | -25.27622 | 19771 ft | 429 kts | 141° |
| 2026-05-05 22:15 | 37.24230 | -25.25282 | 20340 ft | 432 kts | 141° |
| 2026-05-05 22:15 | 37.21955 | -25.22817 | 20892 ft | 436 kts | 137° |
| 2026-05-05 22:15 | 37.19776 | -25.20120 | 21439 ft | 438 kts | 133° |
| 2026-05-05 22:15 | 37.17763 | -25.17263 | 21952 ft | 442 kts | 130° |
| 2026-05-05 22:16 | 37.15789 | -25.14302 | 22467 ft | 446 kts | 129° |
| 2026-05-05 22:16 | 37.13817 | -25.11322 | 22972 ft | 449 kts | 129° |
| 2026-05-05 22:16 | 37.11824 | -25.08312 | 23463 ft | 452 kts | 129° |
| 2026-05-05 22:16 | 37.09807 | -25.05274 | 23936 ft | 455 kts | 129° |
| 2026-05-05 22:17 | 37.07768 | -25.02209 | 24395 ft | 458 kts | 129° |
| 2026-05-05 22:17 | 37.05714 | -24.99127 | 24842 ft | 461 kts | 129° |
| 2026-05-05 22:17 | 37.03666 | -24.96059 | 25264 ft | 464 kts | 129° |
| 2026-05-05 22:17 | 37.01587 | -24.92948 | 25672 ft | 467 kts | 129° |
| 2026-05-05 22:18 | 36.99494 | -24.89820 | 26075 ft | 470 kts | 129° |
| 2026-05-05 22:18 | 36.97413 | -24.86712 | 26568 ft | 468 kts | 129° |
| 2026-05-05 22:18 | 36.95318 | -24.83587 | 27121 ft | 467 kts | 129° |
| 2026-05-05 22:18 | 36.93252 | -24.80508 | 27635 ft | 466 kts | 129° |
| 2026-05-05 22:19 | 36.91180 | -24.77424 | 28128 ft | 465 kts | 129° |
| 2026-05-05 22:19 | 36.89208 | -24.74490 | 28591 ft | 464 kts | 129° |
| 2026-05-05 22:19 | 36.87145 | -24.71423 | 29063 ft | 463 kts | 129° |
| 2026-05-05 22:19 | 36.85069 | -24.68339 | 29535 ft | 462 kts | 129° |
| 2026-05-05 22:20 | 36.83020 | -24.65300 | 29988 ft | 461 kts | 129° |
| 2026-05-05 22:20 | 36.80946 | -24.62224 | 30441 ft | 460 kts | 129° |
| 2026-05-05 22:20 | 36.78893 | -24.59184 | 30877 ft | 459 kts | 129° |
| 2026-05-05 22:20 | 36.76841 | -24.56148 | 31305 ft | 459 kts | 129° |
| 2026-05-05 22:21 | 36.74779 | -24.53100 | 31724 ft | 458 kts | 129° |
| 2026-05-05 22:21 | 36.72732 | -24.50077 | 32128 ft | 457 kts | 129° |
| 2026-05-05 22:21 | 36.70708 | -24.47090 | 32516 ft | 456 kts | 129° |
| 2026-05-05 22:21 | 36.68646 | -24.44049 | 32897 ft | 455 kts | 129° |
| 2026-05-05 22:22 | 36.66622 | -24.41070 | 33260 ft | 454 kts | 129° |
| 2026-05-05 22:22 | 36.64587 | -24.38074 | 33606 ft | 454 kts | 129° |
| 2026-05-05 22:22 | 36.62555 | -24.35083 | 33949 ft | 453 kts | 129° |
| 2026-05-05 22:22 | 36.60525 | -24.32099 | 34284 ft | 452 kts | 130° |
| 2026-05-05 22:23 | 36.58499 | -24.29123 | 34598 ft | 452 kts | 130° |
| 2026-05-05 22:23 | 36.56468 | -24.26146 | 34902 ft | 451 kts | 130° |
| 2026-05-05 22:23 | 36.54448 | -24.23187 | 35203 ft | 451 kts | 130° |
| 2026-05-05 22:23 | 36.52401 | -24.20189 | 35494 ft | 450 kts | 130° |
| 2026-05-05 22:24 | 36.50374 | -24.17225 | 35741 ft | 451 kts | 130° |
| 2026-05-05 22:24 | 36.48343 | -24.14256 | 35954 ft | 452 kts | 130° |
| 2026-05-05 22:24 | 36.46306 | -24.11283 | 36167 ft | 453 kts | 130° |
| 2026-05-05 22:24 | 36.44327 | -24.08289 | 36351 ft | 453 kts | 127° |
| 2026-05-05 22:25 | 36.42457 | -24.05130 | 36530 ft | 454 kts | 124° |
| 2026-05-05 22:25 | 36.40725 | -24.01813 | 36705 ft | 455 kts | 120° |
| 2026-05-05 22:25 | 36.39180 | -23.98428 | 36871 ft | 456 kts | 117° |
| 2026-05-05 22:25 | 36.37770 | -23.94868 | 37036 ft | 457 kts | 114° |
| 2026-05-05 22:26 | 36.36544 | -23.91278 | 37192 ft | 457 kts | 111° |
| 2026-05-05 22:26 | 36.34138 | -23.83889 | 37221 ft | 459 kts | 111° |
| 2026-05-05 22:27 | 36.31749 | -23.76575 | 37224 ft | 459 kts | 111° |
| 2026-05-05 22:27 | 36.29359 | -23.69294 | 37225 ft | 459 kts | 111° |
| 2026-05-05 22:28 | 36.26950 | -23.61984 | 37225 ft | 459 kts | 111° |
| 2026-05-05 22:28 | 36.24534 | -23.54673 | 37225 ft | 459 kts | 111° |
| 2026-05-05 22:29 | 36.22110 | -23.47361 | 37225 ft | 459 kts | 111° |
| 2026-05-05 22:29 | 36.19730 | -23.40198 | 37225 ft | 459 kts | 111° |
| 2026-05-05 22:30 | 36.17288 | -23.32864 | 37225 ft | 459 kts | 111° |
| 2026-05-05 22:30 | 36.14851 | -23.25567 | 37225 ft | 459 kts | 111° |
| 2026-05-05 22:31 | 36.12425 | -23.18317 | 37225 ft | 459 kts | 111° |
| 2026-05-05 22:31 | 36.09972 | -23.11010 | 37225 ft | 459 kts | 111° |
| 2026-05-05 22:32 | 36.07527 | -23.03741 | 37225 ft | 459 kts | 111° |
| 2026-05-05 22:32 | 36.05087 | -22.96505 | 37225 ft | 459 kts | 111° |
| 2026-05-05 22:33 | 36.02635 | -22.89254 | 37225 ft | 459 kts | 111° |
| 2026-05-05 22:33 | 36.00175 | -22.81995 | 37225 ft | 459 kts | 111° |
| 2026-05-05 22:34 | 35.97704 | -22.74721 | 37225 ft | 459 kts | 111° |
| 2026-05-05 22:34 | 35.95250 | -22.67513 | 37225 ft | 459 kts | 111° |
| 2026-05-05 22:35 | 35.92781 | -22.60278 | 37225 ft | 459 kts | 111° |
| 2026-05-05 22:35 | 35.90301 | -22.53029 | 37225 ft | 459 kts | 111° |
| 2026-05-05 22:36 | 35.87811 | -22.45771 | 37225 ft | 459 kts | 112° |
| 2026-05-05 22:36 | 35.85322 | -22.38538 | 37225 ft | 459 kts | 112° |
| 2026-05-05 22:37 | 35.82840 | -22.31335 | 37225 ft | 459 kts | 112° |
| 2026-05-05 22:37 | 35.80341 | -22.24104 | 37225 ft | 459 kts | 112° |
| 2026-05-05 22:38 | 35.77850 | -22.16915 | 37225 ft | 459 kts | 112° |
| 2026-05-05 22:38 | 35.75349 | -22.09708 | 37225 ft | 459 kts | 112° |
| 2026-05-05 22:39 | 35.72850 | -22.02525 | 37225 ft | 459 kts | 112° |
| 2026-05-05 22:39 | 35.70368 | -21.95405 | 37225 ft | 459 kts | 112° |
| 2026-05-05 22:40 | 35.67849 | -21.88195 | 37225 ft | 459 kts | 112° |
| 2026-05-05 22:40 | 35.65329 | -21.81001 | 37225 ft | 459 kts | 112° |
| 2026-05-05 22:41 | 35.62811 | -21.73828 | 37225 ft | 459 kts | 112° |
| 2026-05-05 22:41 | 35.60284 | -21.66646 | 37225 ft | 459 kts | 112° |
| 2026-05-05 22:42 | 35.57745 | -21.59447 | 37225 ft | 459 kts | 112° |
| 2026-05-05 22:42 | 35.55211 | -21.52277 | 37225 ft | 459 kts | 112° |
| 2026-05-05 22:43 | 35.52671 | -21.45108 | 37225 ft | 459 kts | 112° |
| 2026-05-05 22:43 | 35.50127 | -21.37945 | 37225 ft | 459 kts | 112° |
| 2026-05-05 22:44 | 35.47585 | -21.30802 | 37225 ft | 459 kts | 113° |
| 2026-05-05 22:44 | 35.45026 | -21.23627 | 37225 ft | 459 kts | 113° |
| 2026-05-05 22:45 | 35.42469 | -21.16489 | 37225 ft | 459 kts | 113° |
| 2026-05-05 22:45 | 35.39910 | -21.09357 | 37225 ft | 459 kts | 113° |
| 2026-05-05 22:46 | 35.37345 | -21.02218 | 37225 ft | 459 kts | 113° |
| 2026-05-05 22:46 | 35.34768 | -20.95060 | 37225 ft | 459 kts | 113° |
| 2026-05-05 22:47 | 35.32197 | -20.87934 | 37225 ft | 459 kts | 113° |
| 2026-05-05 22:47 | 35.29614 | -20.80793 | 37225 ft | 459 kts | 113° |
| 2026-05-05 22:48 | 35.27032 | -20.73669 | 37225 ft | 459 kts | 113° |
| 2026-05-05 22:48 | 35.24451 | -20.66565 | 37225 ft | 459 kts | 113° |
| 2026-05-05 22:49 | 35.21844 | -20.59403 | 37225 ft | 459 kts | 113° |
| 2026-05-05 22:49 | 35.19320 | -20.52488 | 37224 ft | 459 kts | 113° |
| 2026-05-05 22:50 | 35.16722 | -20.45383 | 37224 ft | 459 kts | 113° |
| 2026-05-05 22:50 | 35.14109 | -20.38252 | 37224 ft | 459 kts | 113° |
| 2026-05-05 22:51 | 35.11498 | -20.31144 | 37224 ft | 459 kts | 114° |
| 2026-05-05 22:51 | 35.08904 | -20.24093 | 37224 ft | 459 kts | 114° |
| 2026-05-05 22:52 | 35.06271 | -20.16954 | 37224 ft | 459 kts | 114° |
| 2026-05-05 22:52 | 35.03666 | -20.09907 | 37224 ft | 459 kts | 114° |
| 2026-05-05 22:53 | 35.01010 | -20.02830 | 37224 ft | 459 kts | 116° |
| 2026-05-05 22:53 | 34.97853 | -19.96045 | 37224 ft | 460 kts | 122° |
| 2026-05-05 22:54 | 34.94332 | -19.89562 | 37225 ft | 460 kts | 123° |
| 2026-05-05 22:54 | 34.90796 | -19.83085 | 37224 ft | 460 kts | 123° |
| 2026-05-05 22:55 | 34.87252 | -19.76591 | 37224 ft | 460 kts | 123° |
| 2026-05-05 22:55 | 34.83734 | -19.70147 | 37224 ft | 460 kts | 123° |
| 2026-05-05 22:56 | 34.80182 | -19.63655 | 37224 ft | 460 kts | 123° |
| 2026-05-05 22:56 | 34.76651 | -19.57209 | 37224 ft | 460 kts | 123° |
| 2026-05-05 22:57 | 34.73097 | -19.50733 | 37224 ft | 460 kts | 123° |
| 2026-05-05 22:57 | 34.69545 | -19.44275 | 37224 ft | 460 kts | 123° |
| 2026-05-05 22:58 | 34.66017 | -19.37872 | 37224 ft | 460 kts | 123° |
| 2026-05-05 22:58 | 34.62464 | -19.31435 | 37224 ft | 460 kts | 123° |
| 2026-05-05 22:59 | 34.58903 | -19.24994 | 37224 ft | 460 kts | 123° |
| 2026-05-05 22:59 | 34.55333 | -19.18541 | 37224 ft | 460 kts | 123° |
| 2026-05-05 23:00 | 34.50010 | -19.08946 | 37224 ft | 460 kts | 123° |
| 2026-05-05 23:00 | 34.46436 | -19.02525 | 37224 ft | 460 kts | 123° |
| 2026-05-05 23:01 | 34.42851 | -18.96093 | 37224 ft | 460 kts | 123° |
| 2026-05-05 23:01 | 34.39278 | -18.89695 | 37224 ft | 460 kts | 123° |
| 2026-05-05 23:02 | 34.35699 | -18.83295 | 37224 ft | 460 kts | 123° |
| 2026-05-05 23:02 | 34.32121 | -18.76910 | 37224 ft | 460 kts | 123° |
| 2026-05-05 23:03 | 34.28520 | -18.70495 | 37225 ft | 460 kts | 123° |
| 2026-05-05 23:03 | 34.24930 | -18.64110 | 37224 ft | 460 kts | 123° |
| 2026-05-05 23:04 | 34.21356 | -18.57765 | 37224 ft | 460 kts | 123° |
| 2026-05-05 23:04 | 34.17754 | -18.51381 | 37224 ft | 460 kts | 123° |
| 2026-05-05 23:05 | 34.14152 | -18.45009 | 37224 ft | 460 kts | 123° |
| 2026-05-05 23:05 | 34.10547 | -18.38642 | 37224 ft | 460 kts | 123° |
| 2026-05-05 23:06 | 34.06941 | -18.32283 | 37224 ft | 460 kts | 124° |
| 2026-05-05 23:06 | 34.03333 | -18.25934 | 37224 ft | 460 kts | 124° |
| 2026-05-05 23:07 | 33.99694 | -18.19539 | 37224 ft | 460 kts | 124° |
| 2026-05-05 23:07 | 33.96102 | -18.13235 | 37224 ft | 460 kts | 124° |
| 2026-05-05 23:08 | 33.92462 | -18.06889 | 37224 ft | 460 kts | 125° |
| 2026-05-05 23:08 | 33.88643 | -18.00708 | 37224 ft | 460 kts | 126° |
| 2026-05-05 23:09 | 33.86776 | -17.97711 | 37086 ft | 461 kts | 126° |
| 2026-05-05 23:09 | 33.84961 | -17.94800 | 36776 ft | 459 kts | 126° |
| 2026-05-05 23:09 | 33.83076 | -17.91777 | 36287 ft | 458 kts | 126° |
| 2026-05-05 23:09 | 33.81172 | -17.88723 | 35630 ft | 458 kts | 126° |
| 2026-05-05 23:10 | 33.79265 | -17.85664 | 34945 ft | 459 kts | 126° |
| 2026-05-05 23:10 | 33.77355 | -17.82605 | 34239 ft | 460 kts | 126° |
| 2026-05-05 23:10 | 33.75432 | -17.79525 | 33519 ft | 462 kts | 126° |
| 2026-05-05 23:10 | 33.73507 | -17.76444 | 32786 ft | 463 kts | 126° |
| 2026-05-05 23:11 | 33.71566 | -17.73341 | 32027 ft | 465 kts | 126° |
| 2026-05-05 23:11 | 33.69637 | -17.70259 | 31260 ft | 466 kts | 126° |
| 2026-05-05 23:11 | 33.67671 | -17.67121 | 30465 ft | 468 kts | 126° |
| 2026-05-05 23:11 | 33.65740 | -17.64041 | 29669 ft | 470 kts | 126° |
| 2026-05-05 23:12 | 33.63782 | -17.60921 | 28841 ft | 470 kts | 126° |
| 2026-05-05 23:12 | 33.61819 | -17.57796 | 27989 ft | 472 kts | 126° |
| 2026-05-05 23:12 | 33.59837 | -17.54643 | 27107 ft | 473 kts | 126° |
| 2026-05-05 23:12 | 33.57859 | -17.51498 | 26202 ft | 475 kts | 126° |
| 2026-05-05 23:13 | 33.55893 | -17.48375 | 25379 ft | 474 kts | 126° |
| 2026-05-05 23:13 | 33.53916 | -17.45235 | 24789 ft | 468 kts | 126° |
| 2026-05-05 23:13 | 33.51970 | -17.42148 | 24194 ft | 462 kts | 126° |
| 2026-05-05 23:13 | 33.50058 | -17.39118 | 23598 ft | 457 kts | 126° |
| 2026-05-05 23:14 | 33.48149 | -17.36095 | 22996 ft | 453 kts | 126° |
| 2026-05-05 23:14 | 33.46268 | -17.33117 | 22398 ft | 448 kts | 127° |
| 2026-05-05 23:14 | 33.44384 | -17.30138 | 21794 ft | 444 kts | 127° |
| 2026-05-05 23:14 | 33.42551 | -17.27241 | 21204 ft | 439 kts | 127° |
| 2026-05-05 23:15 | 33.40700 | -17.24319 | 20604 ft | 435 kts | 127° |
| 2026-05-05 23:15 | 33.38895 | -17.21469 | 20015 ft | 432 kts | 127° |
| 2026-05-05 23:15 | 33.37103 | -17.18645 | 19429 ft | 427 kts | 127° |
| 2026-05-05 23:15 | 33.35300 | -17.15807 | 18835 ft | 422 kts | 127° |
| 2026-05-05 23:16 | 33.33538 | -17.13036 | 18250 ft | 419 kts | 127° |
| 2026-05-05 23:16 | 33.31790 | -17.10292 | 17665 ft | 415 kts | 127° |
| 2026-05-05 23:16 | 33.30033 | -17.07540 | 17075 ft | 412 kts | 127° |
| 2026-05-05 23:16 | 33.28314 | -17.04847 | 16496 ft | 409 kts | 127° |
| 2026-05-05 23:17 | 33.26603 | -17.02168 | 15918 ft | 406 kts | 127° |
| 2026-05-05 23:17 | 33.24901 | -16.99504 | 15339 ft | 402 kts | 127° |
| 2026-05-05 23:17 | 33.23226 | -16.96883 | 14768 ft | 399 kts | 127° |
| 2026-05-05 23:17 | 33.21545 | -16.94257 | 14192 ft | 396 kts | 127° |
| 2026-05-05 23:18 | 33.19872 | -16.91644 | 13616 ft | 393 kts | 127° |
| 2026-05-05 23:18 | 33.18224 | -16.89071 | 13047 ft | 391 kts | 127° |
| 2026-05-05 23:18 | 33.16593 | -16.86527 | 12480 ft | 388 kts | 127° |
| 2026-05-05 23:18 | 33.14951 | -16.83967 | 11909 ft | 384 kts | 127° |
| 2026-05-05 23:19 | 33.13358 | -16.81477 | 11510 ft | 376 kts | 127° |
| 2026-05-05 23:19 | 33.11896 | -16.79195 | 11236 ft | 365 kts | 127° |
| 2026-05-05 23:19 | 33.10381 | -16.76840 | 11039 ft | 352 kts | 126° |
| 2026-05-05 23:19 | 33.08911 | -16.74536 | 10820 ft | 340 kts | 127° |
| 2026-05-05 23:20 | 33.07497 | -16.72341 | 10631 ft | 328 kts | 127° |
| 2026-05-05 23:20 | 33.06131 | -16.70216 | 10456 ft | 317 kts | 127° |
| 2026-05-05 23:20 | 33.04820 | -16.68171 | 10298 ft | 305 kts | 127° |
| 2026-05-05 23:20 | 33.03551 | -16.66213 | 10096 ft | 297 kts | 127° |
| 2026-05-05 23:21 | 33.02294 | -16.64276 | 9715 ft | 296 kts | 127° |
| 2026-05-05 23:21 | 33.01048 | -16.62320 | 9352 ft | 294 kts | 127° |
| 2026-05-05 23:21 | 32.99662 | -16.60520 | 8905 ft | 295 kts | 145° |
| 2026-05-05 23:21 | 32.97773 | -16.59700 | 8502 ft | 291 kts | 176° |
| 2026-05-05 23:22 | 32.95754 | -16.59642 | 8153 ft | 287 kts | 180° |
| 2026-05-05 23:22 | 32.93772 | -16.59594 | 7801 ft | 285 kts | 180° |
| 2026-05-05 23:22 | 32.91789 | -16.59509 | 7448 ft | 281 kts | 179° |
| 2026-05-05 23:22 | 32.89866 | -16.59404 | 7113 ft | 274 kts | 178° |
| 2026-05-05 23:23 | 32.87976 | -16.59290 | 6890 ft | 266 kts | 178° |
| 2026-05-05 23:23 | 32.86170 | -16.59231 | 6778 ft | 253 kts | 187° |
| 2026-05-05 23:23 | 32.84581 | -16.59892 | 6572 ft | 242 kts | 218° |
| 2026-05-05 23:23 | 32.83317 | -16.61189 | 6295 ft | 238 kts | 226° |
| 2026-05-05 23:24 | 32.82061 | -16.62499 | 5990 ft | 239 kts | 218° |
| 2026-05-05 23:24 | 32.80631 | -16.63483 | 5696 ft | 241 kts | 206° |
| 2026-05-05 23:24 | 32.79062 | -16.64195 | 5407 ft | 241 kts | 201° |
| 2026-05-05 23:24 | 32.77466 | -16.64843 | 5115 ft | 240 kts | 201° |
| 2026-05-05 23:25 | 32.75879 | -16.65474 | 4828 ft | 239 kts | 201° |
| 2026-05-05 23:25 | 32.74315 | -16.66100 | 4544 ft | 238 kts | 201° |
| 2026-05-05 23:25 | 32.72748 | -16.66733 | 4262 ft | 237 kts | 201° |
| 2026-05-05 23:25 | 32.71180 | -16.67366 | 3977 ft | 236 kts | 201° |
| 2026-05-05 23:26 | 32.69632 | -16.67992 | 3697 ft | 234 kts | 201° |
| 2026-05-05 23:26 | 32.68118 | -16.68605 | 3558 ft | 224 kts | 201° |
| 2026-05-05 23:26 | 32.66710 | -16.69171 | 3596 ft | 203 kts | 201° |
| 2026-05-05 23:26 | 32.65431 | -16.69683 | 3533 ft | 185 kts | 202° |
| 2026-05-05 23:27 | 32.64267 | -16.70150 | 3388 ft | 164 kts | 202° |
| 2026-05-05 23:27 | 32.63297 | -16.70660 | 3234 ft | 143 kts | 215° |
| 2026-05-05 23:27 | 32.62506 | -16.71337 | 3162 ft | 139 kts | 226° |
| 2026-05-05 23:27 | 32.61850 | -16.72184 | 3069 ft | 137 kts | 238° |
| 2026-05-05 23:28 | 32.61352 | -16.73137 | 2912 ft | 135 kts | 249° |
| 2026-05-05 23:28 | 32.61021 | -16.74166 | 2659 ft | 131 kts | 259° |
| 2026-05-05 23:28 | 32.60861 | -16.75216 | 2488 ft | 129 kts | 269° |
| 2026-05-05 23:28 | 32.60860 | -16.76273 | 2321 ft | 128 kts | 278° |
| 2026-05-05 23:29 | 32.61010 | -16.77306 | 2152 ft | 126 kts | 288° |
| 2026-05-05 23:29 | 32.61297 | -16.78204 | 1993 ft | 125 kts | 300° |
| 2026-05-05 23:29 | 32.61795 | -16.79038 | 1829 ft | 124 kts | 313° |
| 2026-05-05 23:29 | 32.62456 | -16.79702 | 1658 ft | 123 kts | 327° |
| 2026-05-05 23:30 | 32.63232 | -16.80135 | 1499 ft | 124 kts | 340° |
| 2026-05-05 23:30 | 32.63794 | -16.80288 | 1387 ft | 124 kts | 349° |
| 2026-05-05 23:30 | 32.64943 | -16.80346 | 1169 ft | 124 kts | 356° |
| 2026-05-05 23:30 | 32.65810 | -16.80349 | 1004 ft | 124 kts | 357° |
| 2026-05-05 23:31 | 32.66688 | -16.80250 | 840 ft | 126 kts | 9° |
| 2026-05-05 23:31 | 32.67518 | -16.79881 | 640 ft | 128 kts | 24° |
| 2026-05-05 23:31 | 32.68246 | -16.79258 | 417 ft | 131 kts | 40° |
| 2026-05-05 23:31 | 32.68881 | -16.78496 | 210 ft | 130 kts | 40° |
| 2026-05-05 23:32 | 32.69505 | -16.77772 | 203 ft | 107 kts | 38° |
| 2026-05-05 23:32 | 32.69911 | -16.77305 | 214 ft | 55 kts | 48° |
| 2026-05-05 23:32 | 32.70138 | -16.77037 | 202 ft | 38 kts | 42° |
| 2026-05-05 23:32 | 32.70302 | -16.76851 | 198 ft | 20 kts | 43° |
| 2026-05-05 23:33 | 32.70271 | -16.76836 | 198 ft | 12 kts | 225° |
| 2026-05-05 23:33 | 32.70197 | -16.76922 | 198 ft | 17 kts | 225° |
| 2026-05-05 23:33 | 32.70112 | -16.77019 | 201 ft | 16 kts | 226° |
| 2026-05-05 23:33 | 32.70046 | -16.77124 | 208 ft | 14 kts | 238° |
| 2026-05-05 23:34 | 32.69968 | -16.77175 | 209 ft | 15 kts | 182° |
| 2026-05-05 23:34 | 32.69840 | -16.77188 | 199 ft | 19 kts | 205° |
| 2026-05-05 23:34 | 32.69742 | -16.77296 | 195 ft | 19 kts | 225° |
| 2026-05-05 23:34 | 32.69665 | -16.77388 | 194 ft | 13 kts | 227° |
| 2026-05-05 23:35 | 32.69620 | -16.77446 | 194 ft | 9 kts | 226° |
| 2026-05-05 23:35 | 32.69572 | -16.77504 | 193 ft | 10 kts | 223° |
| 2026-05-05 23:35 | 32.69534 | -16.77549 | 193 ft | 7 kts | 228° |
| 2026-05-05 23:35 | 32.69505 | -16.77587 | 193 ft | 4 kts | 225° |
| 2026-05-05 23:36 | 32.69488 | -16.77595 | 193 ft | 3 kts | 168° |
| 2026-05-05 23:36 | 32.69476 | -16.77587 | 192 ft | 2 kts | 145° |
| 2026-05-05 23:36 | 32.69458 | -16.77572 | 189 ft | 3 kts | 141° |
| 2026-05-05 23:36 | 32.69439 | -16.77553 | 186 ft | 0 kts | 138° |
| 2026-05-05 23:37 | 32.69439 | -16.77552 | 186 ft | 0 kts | 138° |